createdAt,value
2018-09-24T00:02:44.589Z,99.90
2018-09-24T00:07:49.087Z,99.90
2018-09-24T00:12:52.479Z,99.90
2018-09-24T00:17:57.051Z,99.90
2018-09-24T00:23:00.409Z,99.90
2018-09-24T00:28:15.765Z,99.90
2018-09-24T00:33:19.699Z,99.90
2018-09-24T00:38:24.447Z,99.90
2018-09-24T00:43:27.866Z,99.90
2018-09-24T00:48:31.729Z,99.90
2018-09-24T00:53:36.569Z,99.90
2018-09-24T00:58:40.848Z,99.90
2018-09-24T01:03:44.434Z,99.90
2018-09-24T01:08:47.813Z,99.90
2018-09-24T01:13:51.112Z,99.90
2018-09-24T01:18:55.096Z,99.90
2018-09-24T01:23:58.408Z,99.90
2018-09-24T01:29:01.843Z,99.90
2018-09-24T01:34:05.199Z,99.90
2018-09-24T01:39:09.014Z,99.90
2018-09-24T01:44:12.333Z,99.90
2018-09-24T01:49:15.697Z,99.90
2018-09-24T01:54:19.713Z,99.90
2018-09-24T01:59:23.021Z,99.90
2018-09-24T02:04:26.656Z,99.90
2018-09-24T02:09:31.654Z,99.90
2018-09-24T02:14:35.222Z,99.90
2018-09-24T02:19:54.717Z,99.90
2018-09-24T02:24:59.184Z,99.90
2018-09-24T02:30:02.524Z,99.90
2018-09-24T02:35:05.899Z,99.90
2018-09-24T02:40:17.773Z,99.90
2018-09-24T02:45:21.357Z,99.90
2018-09-24T02:50:35.118Z,99.90
2018-09-24T02:55:38.480Z,99.90
2018-09-24T03:00:41.882Z,99.90
2018-09-24T03:05:45.510Z,99.90
2018-09-24T03:10:48.779Z,99.90
2018-09-24T03:15:52.104Z,99.90
2018-09-24T03:20:55.512Z,99.90
2018-09-24T03:25:58.877Z,99.90
2018-09-24T03:31:02.351Z,99.90
2018-09-24T03:36:05.701Z,99.90
2018-09-24T03:41:09.059Z,99.90
2018-09-24T03:46:12.364Z,99.90
2018-09-24T03:51:15.787Z,99.90
2018-09-24T03:56:29.125Z,99.90
2018-09-24T04:01:33.119Z,99.90
2018-09-24T04:07:51.755Z,99.90
2018-09-24T04:13:01.739Z,99.90
2018-09-24T04:23:45.041Z,99.90
2018-09-24T04:31:29.145Z,99.90
2018-09-24T04:36:37.898Z,99.90
2018-09-24T04:41:46.441Z,99.90
2018-09-24T04:46:57.092Z,99.90
2018-09-24T04:52:05.849Z,99.90
2018-09-24T04:57:15.253Z,99.90
2018-09-24T05:02:24.797Z,99.90
2018-09-24T05:07:33.471Z,99.90
2018-09-24T05:12:42.109Z,99.90
2018-09-24T05:17:50.683Z,99.90
2018-09-24T05:22:59.274Z,99.90
2018-09-24T05:28:07.808Z,99.90
2018-09-24T05:33:16.649Z,99.90
2018-09-24T05:38:25.575Z,99.90
2018-09-24T05:43:34.184Z,99.90
2018-09-24T05:48:42.775Z,99.90
2018-09-24T05:53:51.484Z,99.90
2018-09-24T05:59:00.182Z,99.90
2018-09-24T06:04:08.887Z,99.90
2018-09-24T06:09:17.628Z,99.90
2018-09-24T06:14:26.341Z,99.90
2018-09-24T06:19:34.886Z,99.90
2018-09-24T06:24:43.614Z,99.90
2018-09-24T06:29:52.422Z,99.90
2018-09-24T06:35:01.439Z,99.90
2018-09-24T06:40:10.091Z,99.90
2018-09-24T06:45:18.856Z,99.90
2018-09-24T06:50:27.803Z,99.90
2018-09-24T06:55:37.550Z,99.90
2018-09-24T07:00:46.051Z,99.90
2018-09-24T07:05:55.343Z,99.90
2018-09-24T07:11:04.630Z,99.90
2018-09-24T07:16:13.440Z,99.90
2018-09-24T07:21:22.915Z,99.90
2018-09-24T07:26:32.604Z,99.90
2018-09-24T07:31:49.258Z,99.90
2018-09-24T07:36:58.717Z,99.90
2018-09-24T07:42:07.756Z,99.90
2018-09-24T07:47:17.412Z,99.90
2018-09-24T07:52:26.203Z,99.90
2018-09-24T07:57:34.953Z,99.90
2018-09-24T08:02:43.585Z,99.90
2018-09-24T08:07:52.333Z,99.90
2018-09-24T08:13:01.674Z,99.90
2018-09-24T08:18:10.474Z,99.90
2018-09-24T08:23:18.994Z,99.90
2018-09-24T08:28:27.621Z,99.90
2018-09-24T08:33:36.335Z,99.90
2018-09-24T08:38:45.115Z,99.90
2018-09-24T08:43:53.793Z,99.90
2018-09-24T08:49:03.141Z,99.90
2018-09-24T08:54:12.229Z,99.90
2018-09-24T08:59:20.919Z,99.90
2018-09-24T09:04:29.725Z,99.90
2018-09-24T09:09:38.439Z,99.90
2018-09-24T09:14:47.709Z,99.90
2018-09-24T09:19:56.474Z,99.90
2018-09-24T09:25:13.710Z,99.90
2018-09-24T09:30:22.823Z,99.90
2018-09-24T09:35:31.625Z,99.90
2018-09-24T09:40:40.361Z,99.90
2018-09-24T09:45:49.088Z,99.90
2018-09-24T09:50:57.810Z,99.90
2018-09-24T09:56:06.545Z,99.90
2018-09-24T10:01:20.018Z,99.90
2018-09-24T10:06:28.774Z,99.90
2018-09-24T10:11:37.546Z,99.90
2018-09-24T10:16:46.288Z,99.90
2018-09-24T10:21:55.100Z,99.90
2018-09-24T10:27:05.549Z,99.90
2018-09-24T10:32:14.994Z,99.90
2018-09-24T10:37:23.943Z,99.90
2018-09-24T10:42:34.920Z,99.90
2018-09-24T10:47:43.447Z,99.90
2018-09-24T10:52:56.033Z,99.90
2018-09-24T10:58:04.585Z,99.90
2018-09-24T11:03:15.228Z,99.90
2018-09-24T11:08:23.993Z,99.90
2018-09-24T11:13:38.808Z,99.90
2018-09-24T11:18:48.106Z,99.90
2018-09-24T11:23:58.950Z,99.90
2018-09-24T11:29:08.015Z,97.20
2018-09-24T11:34:16.718Z,99.50
2018-09-24T11:39:25.559Z,99.00
2018-09-24T11:44:34.548Z,98.50
2018-09-24T11:49:43.716Z,98.90
2018-09-24T11:54:52.394Z,99.00
2018-09-24T12:00:00.977Z,98.50
2018-09-24T12:05:12.378Z,97.90
2018-09-24T12:10:21.102Z,94.70
2018-09-24T12:15:29.642Z,95.90
2018-09-24T12:20:38.353Z,94.80
2018-09-24T12:25:47.166Z,96.10
2018-09-24T12:30:56.348Z,95.20
2018-09-24T12:36:05.206Z,95.60
2018-09-24T12:41:13.910Z,94.20
2018-09-24T12:46:22.841Z,95.60
2018-09-24T12:51:31.579Z,93.00
2018-09-24T12:56:40.280Z,94.90
2018-09-24T13:01:49.100Z,91.40
2018-09-24T13:06:57.825Z,92.20
2018-09-24T13:12:06.874Z,91.60
2018-09-24T13:17:15.758Z,90.50
2018-09-24T13:22:24.597Z,88.30
2018-09-24T13:27:33.199Z,85.70
2018-09-24T13:32:41.964Z,86.30
2018-09-24T13:37:50.564Z,88.70
2018-09-24T13:42:59.404Z,90.00
2018-09-24T13:48:08.589Z,91.00
2018-09-24T13:53:17.563Z,92.00
2018-09-24T13:58:26.271Z,89.90
2018-09-24T14:03:39.982Z,90.50
2018-09-24T14:08:48.662Z,87.30
2018-09-24T14:13:57.434Z,84.50
2018-09-24T14:19:13.581Z,85.70
2018-09-24T14:24:23.671Z,85.80
2018-09-24T14:29:34.380Z,87.90
2018-09-24T14:34:42.987Z,88.60
2018-09-24T14:39:51.753Z,89.60
2018-09-24T14:45:00.449Z,90.30
2018-09-24T14:50:09.678Z,89.50
2018-09-24T14:55:18.265Z,91.30
2018-09-24T15:00:27.096Z,92.10
2018-09-24T15:05:35.800Z,92.30
2018-09-24T15:10:44.575Z,92.20
2018-09-24T15:15:53.360Z,92.50
2018-09-24T15:21:02.044Z,92.50
2018-09-24T15:26:10.613Z,92.70
2018-09-24T15:31:19.229Z,93.10
2018-09-24T15:36:28.245Z,92.30
2018-09-24T15:41:36.917Z,92.90
2018-09-24T15:46:45.592Z,92.90
2018-09-24T15:51:54.198Z,94.00
2018-09-24T15:57:02.911Z,95.70
2018-09-24T16:02:29.263Z,96.80
2018-09-24T16:07:38.794Z,97.40
2018-09-24T16:12:48.034Z,97.40
2018-09-24T16:17:56.796Z,97.30
2018-09-24T16:23:06.280Z,97.80
2018-09-24T16:28:15.158Z,98.40
2018-09-24T16:33:23.738Z,99.00
2018-09-24T16:38:36.644Z,98.10
2018-09-24T16:43:45.205Z,98.20
2018-09-24T16:48:54.704Z,98.70
2018-09-24T16:54:03.532Z,99.20
2018-09-24T16:59:13.336Z,99.90
2018-09-24T17:04:25.872Z,99.90
2018-09-24T17:09:35.694Z,99.90
2018-09-24T17:14:44.380Z,99.90
2018-09-24T17:19:53.772Z,99.90
2018-09-24T17:25:03.439Z,99.90
2018-09-24T17:30:12.271Z,99.90
2018-09-24T17:35:21.195Z,99.90
2018-09-24T17:40:30.602Z,99.90
2018-09-24T17:45:39.860Z,99.90
2018-09-24T17:50:51.778Z,99.90
2018-09-24T17:56:00.564Z,99.90
2018-09-24T18:01:09.622Z,99.90
2018-09-24T18:06:18.495Z,99.90
2018-09-24T18:11:27.440Z,99.90
2018-09-24T18:16:36.916Z,99.90
2018-09-24T18:21:48.784Z,99.90
2018-09-24T18:26:58.413Z,99.90
2018-09-24T18:32:12.223Z,99.90
2018-09-24T18:37:30.600Z,99.90
2018-09-24T18:58:51.759Z,99.90
2018-09-24T19:04:07.654Z,99.90
2018-09-24T19:09:16.574Z,99.90
2018-09-24T19:14:27.461Z,99.90
2018-09-24T19:19:36.430Z,99.90
2018-09-24T19:30:07.070Z,99.90
2018-09-24T19:35:16.207Z,99.90
2018-09-24T19:40:25.611Z,99.90
2018-09-24T19:45:34.550Z,99.90
2018-09-24T19:50:43.478Z,99.90
2018-09-24T19:55:52.541Z,99.90
2018-09-24T20:06:20.655Z,99.90
2018-09-24T20:11:48.769Z,99.90
2018-09-24T20:16:59.048Z,99.90
2018-09-24T20:22:08.325Z,99.90
2018-09-24T20:27:17.876Z,99.90
2018-09-24T20:32:27.315Z,99.90
2018-09-24T20:37:37.716Z,99.90
2018-09-24T20:42:46.508Z,99.90
2018-09-24T20:47:55.642Z,99.90
2018-09-24T20:53:05.066Z,99.90
2018-09-24T20:58:14.770Z,99.90
2018-09-24T21:03:26.030Z,99.90
2018-09-24T21:08:35.595Z,99.90
2018-09-24T21:13:45.267Z,99.90
2018-09-24T21:18:54.361Z,99.90
2018-09-24T21:24:03.889Z,99.90
2018-09-24T21:29:14.540Z,99.90
2018-09-24T21:34:39.547Z,99.90
2018-09-24T21:39:48.476Z,99.90
2018-09-24T21:44:59.171Z,99.90
2018-09-24T21:50:08.478Z,99.90
2018-09-24T21:55:17.843Z,99.90
2018-09-24T22:00:27.148Z,99.90
2018-09-24T22:05:36.789Z,99.90
2018-09-24T22:10:45.930Z,99.90
2018-09-24T22:15:56.393Z,99.90
2018-09-24T22:21:05.286Z,99.90
2018-09-24T22:26:16.584Z,99.90
2018-09-24T22:31:25.795Z,99.90
2018-09-24T22:36:35.060Z,99.90
2018-09-24T22:41:44.260Z,99.90
2018-09-24T22:46:54.160Z,99.90
2018-09-24T22:52:03.005Z,99.90
2018-09-24T22:57:14.087Z,99.90
2018-09-24T23:02:26.376Z,99.90
2018-09-24T23:07:35.657Z,99.90
2018-09-24T23:12:44.892Z,99.90
2018-09-24T23:17:53.974Z,99.90
2018-09-24T23:23:02.964Z,99.90
2018-09-24T23:28:11.967Z,99.90
2018-09-24T23:33:20.834Z,99.90
2018-09-24T23:38:29.852Z,99.90
2018-09-24T23:43:39.478Z,99.90
2018-09-24T23:48:48.500Z,99.90
2018-09-24T23:53:57.955Z,99.90
2018-09-24T23:59:06.924Z,99.90
